100LL.CA
Aviation Fuel Pricing for Canadians
Please upgrade your browser - Tested with IE9, FireFox, Chrome, Safari

Fuel Prices Airport Info Airport List METAR / TAF Kneeboard RSS

Reference Airport: Langley Regional, BC
N 49 06 03   W 122 37 51

Enter a list of
Airport Idents:
Sort Method: As Entered    By Ident   

CYVR
METAR CYVR 172300Z 09008KT 20SM -RA FEW030 SCT040 BKN055 BKN064 OVC080 10/07 A2971 RMK SC2SC2SC1SC2AC1 PRESRR SLP062
TAF CYVR 172038Z 1721/1824 09015G25KT P6SM BKN040 OVC080 TEMPO 1721/1801 3SM -RA BR BKN020 OVC040 BECMG 1722/1724 14015G25KT FM180100 14015G25KT P6SM BKN030 TEMPO 1801/1824 5SM -SHRA BR BECMG 1802/1804 14015KT RMK NXT FCST BY 180000Z
CYXX
METAR CYXX 172300Z 03009KT 320V040 13SM -RA OVC060 07/05 A2971 RMK SC8 SLP063
TAF CYXX 171738Z 1718/1818 06010KT P6SM OVC040 TEMPO 1718/1818 5SM -SHRA BR OVC020 BECMG 1721/1723 18015G25KT RMK NXT FCST BY 180000Z
KBLI
METAR KBLI 172353Z 15014G28KT 10SM -RA OVC065 12/07 A2967 RMK AO2 PK WND 17028/2345 SLP055 P0003 60004 T01220072 10167 20089 56015
TAF KBLI 172106Z 1721/1818 14020G30KT P6SM -RA OVC060 TEMPO 1800/1804 5SM RA BR OVC030 FM180600 16017G27KT P6SM -SHRA BKN025 OVC050 FM181700 14014KT P6SM VCSH BKN050